Time,TemperatureF,DewpointF,PressureIn,WindDirection,WindDirectionDegrees,WindSpeedMPH,WindSpeedGustMPH,Humidity,HourlyPrecipIn,Conditions,Clouds,dailyrainin,SoftwareType,DateUTC
2013-10-04 00:00:00,64.3,62.8,30.04,East,88,0.0,0.0,95,0.00,CLR,,0.00,WeatherDisplay:10.37,2013-10-04 04:00:00,
2013-10-04 00:35:00,63.7,62.5,30.03,East,88,0.0,0.0,96,0.00,CLR,,0.00,WeatherDisplay:10.37,2013-10-04 04:35:00,
2013-10-04 00:40:00,63.5,62.3,30.03,East,88,0.0,0.0,96,0.00,CLR,,0.00,WeatherDisplay:10.37,2013-10-04 04:40:00,
2013-10-04 00:45:00,63.5,62.3,30.03,East,88,0.0,0.0,96,0.00,CLR,,0.00,WeatherDisplay:10.37,2013-10-04 04:45:00,
2013-10-04 00:50:00,63.4,62.2,30.03,East,88,0.0,1.0,96,0.00,CLR,,0.00,WeatherDisplay:10.37,2013-10-04 04:50:00,
2013-10-04 00:55:00,63.4,62.5,30.03,East,88,0.0,1.0,97,0.00,CLR,,0.00,WeatherDisplay:10.37,2013-10-04 04:55:00,
2013-10-04 01:00:00,63.2,62.3,30.03,East,88,0.0,0.0,97,0.00,CLR,,0.00,WeatherDisplay:10.37,2013-10-04 05:00:00,
2013-10-04 01:05:00,63.2,62.0,30.03,East,88,0.0,0.0,96,0.00,CLR,,0.00,WeatherDisplay:10.37,2013-10-04 05:05:00,
2013-10-04 01:10:00,63.1,61.9,30.03,East,88,0.0,0.0,96,0.00,CLR,,0.00,WeatherDisplay:10.37,2013-10-04 05:10:00,
2013-10-04 01:15:00,62.9,62.0,30.03,East,88,0.0,0.0,97,0.00,CLR,,0.00,WeatherDisplay:10.37,2013-10-04 05:15:00,
2013-10-04 01:25:00,62.6,61.7,30.03,East,88,0.0,0.0,97,0.00,CLR,,0.00,WeatherDisplay:10.37,2013-10-04 05:25:00,
2013-10-04 01:35:00,62.4,61.5,30.03,East,88,0.0,0.0,97,0.00,CLR,,0.00,WeatherDisplay:10.37,2013-10-04 05:35:00,
2013-10-04 01:45:00,62.4,61.5,30.03,East,88,0.0,0.0,97,0.00,CLR,,0.00,WeatherDisplay:10.37,2013-10-04 05:45:00,
2013-10-04 01:50:00,62.3,61.4,30.03,East,88,0.0,0.0,97,0.00,CLR,,0.00,WeatherDisplay:10.37,2013-10-04 05:50:00,
2013-10-04 01:55:00,62.1,61.2,30.03,East,88,0.0,0.0,97,0.00,CLR,,0.00,WeatherDisplay:10.37,2013-10-04 05:55:00,
2013-10-04 02:00:00,62.1,61.2,30.03,East,88,0.0,0.0,97,0.00,CLR,,0.00,WeatherDisplay:10.37,2013-10-04 06:00:00,
2013-10-04 02:05:00,62.0,61.1,30.03,East,88,0.0,0.0,97,0.00,CLR,,0.00,WeatherDisplay:10.37,2013-10-04 06:05:00,
2013-10-04 02:10:00,62.0,61.1,30.03,East,88,0.0,0.0,97,0.00,CLR,,0.00,WeatherDisplay:10.37,2013-10-04 06:10:00,
2013-10-04 02:15:00,62.0,61.1,30.03,East,88,0.0,1.0,97,0.00,CLR,,0.00,WeatherDisplay:10.37,2013-10-04 06:15:00,
2013-10-04 02:25:00,62.0,61.1,30.03,East,88,0.0,1.0,97,0.00,CLR,,0.00,WeatherDisplay:10.37,2013-10-04 06:25:00,
2013-10-04 02:30:00,61.8,60.9,30.03,East,88,0.0,1.0,97,0.00,CLR,,0.00,WeatherDisplay:10.37,2013-10-04 06:30:00,
2013-10-04 02:35:00,61.7,60.8,30.03,East,88,0.0,0.0,97,0.00,CLR,,0.00,WeatherDisplay:10.37,2013-10-04 06:35:00,
2013-10-04 02:45:00,61.5,60.6,30.03,East,88,0.0,0.0,97,0.00,CLR,,0.00,WeatherDisplay:10.37,2013-10-04 06:45:00,
2013-10-04 02:50:00,61.3,60.4,30.03,East,88,0.0,0.0,97,0.00,CLR,,0.00,WeatherDisplay:10.37,2013-10-04 06:50:00,
2013-10-04 02:55:00,61.3,60.4,30.03,East,88,0.0,0.0,97,0.00,CLR,,0.00,WeatherDisplay:10.37,2013-10-04 06:55:00,
2013-10-04 03:00:00,61.1,60.3,30.02,East,88,0.0,1.0,97,0.00,CLR,,0.00,WeatherDisplay:10.37,2013-10-04 07:00:00,
2013-10-04 03:05:00,61.0,60.1,30.02,East,88,0.0,1.0,97,0.00,CLR,,0.00,WeatherDisplay:10.37,2013-10-04 07:05:00,
2013-10-04 03:15:00,60.9,60.3,30.02,East,88,0.0,0.0,98,0.00,CLR,,0.00,WeatherDisplay:10.37,2013-10-04 07:15:00,
2013-10-04 03:25:00,60.7,60.1,30.02,East,88,0.0,0.0,98,0.00,CLR,,0.00,WeatherDisplay:10.37,2013-10-04 07:25:00,
2013-10-04 03:30:00,60.7,60.1,30.02,East,88,0.0,0.0,98,0.00,CLR,,0.00,WeatherDisplay:10.37,2013-10-04 07:30:00,
2013-10-04 03:40:00,60.5,59.9,30.02,East,88,0.0,0.0,98,0.00,CLR,,0.00,WeatherDisplay:10.37,2013-10-04 07:40:00,
2013-10-04 03:45:00,60.5,59.9,30.01,East,88,0.0,1.0,98,0.00,CLR,,0.00,WeatherDisplay:10.37,2013-10-04 07:45:00,
2013-10-04 03:50:00,60.5,59.9,30.01,East,88,1.0,2.0,98,0.00,CLR,,0.00,WeatherDisplay:10.37,2013-10-04 07:50:00,
2013-10-04 03:55:00,60.6,60.0,30.01,East,88,0.0,1.0,98,0.00,CLR,,0.00,WeatherDisplay:10.37,2013-10-04 07:55:00,
2013-10-04 04:05:00,60.5,59.9,30.02,East,88,0.0,1.0,98,0.00,BKN,,0.00,WeatherDisplay:10.37,2013-10-04 08:05:00,
2013-10-04 04:15:00,60.4,59.8,30.02,East,88,0.0,1.0,98,0.00,BKN,,0.00,WeatherDisplay:10.37,2013-10-04 08:15:00,
2013-10-04 04:20:00,60.4,59.8,30.02,East,88,0.0,1.0,98,0.00,BKN,,0.00,WeatherDisplay:10.37,2013-10-04 08:20:00,
2013-10-04 04:25:00,60.4,59.8,30.02,East,88,0.0,0.0,98,0.00,BKN,,0.00,WeatherDisplay:10.37,2013-10-04 08:25:00,
2013-10-04 04:35:00,60.4,59.8,30.02,East,88,0.0,1.0,98,0.00,BKN,,0.00,WeatherDisplay:10.37,2013-10-04 08:35:00,
2013-10-04 04:40:00,60.2,59.6,30.02,East,88,0.0,0.0,98,0.00,BKN,,0.00,WeatherDisplay:10.37,2013-10-04 08:40:00,
2013-10-04 04:50:00,60.1,59.5,30.02,East,88,0.0,0.0,98,0.00,BKN,,0.00,WeatherDisplay:10.37,2013-10-04 08:50:00,
2013-10-04 04:55:00,59.9,59.3,30.02,East,88,0.0,0.0,98,0.00,BKN,,0.00,WeatherDisplay:10.37,2013-10-04 08:55:00,
2013-10-04 05:00:00,59.8,59.2,30.02,East,88,0.0,1.0,98,0.00,FEW,,0.00,WeatherDisplay:10.37,2013-10-04 09:00:00,
2013-10-04 05:05:00,59.8,59.2,30.02,East,88,0.0,0.0,98,0.00,FEW,,0.00,WeatherDisplay:10.37,2013-10-04 09:05:00,
2013-10-04 05:10:00,59.8,59.2,30.02,East,88,0.0,1.0,98,0.00,FEW,,0.00,WeatherDisplay:10.37,2013-10-04 09:10:00,
2013-10-04 05:15:00,59.8,59.5,30.03,East,88,0.0,0.0,99,0.00,FEW,,0.00,WeatherDisplay:10.37,2013-10-04 09:15:00,
2013-10-04 05:20:00,59.8,59.2,30.03,East,88,0.0,0.0,98,0.00,FEW,,0.00,WeatherDisplay:10.37,2013-10-04 09:20:00,
2013-10-04 05:25:00,59.8,59.2,30.03,East,88,0.0,0.0,98,0.00,FEW,,0.00,WeatherDisplay:10.37,2013-10-04 09:25:00,
2013-10-04 05:35:00,59.5,59.0,30.02,East,88,0.0,0.0,98,0.00,FEW,,0.00,WeatherDisplay:10.37,2013-10-04 09:35:00,
2013-10-04 05:45:00,59.5,59.2,30.02,East,88,0.0,0.0,99,0.00,FEW,,0.00,WeatherDisplay:10.37,2013-10-04 09:45:00,
2013-10-04 05:55:00,59.5,59.2,30.02,East,88,0.0,1.0,99,0.00,FEW,,0.00,WeatherDisplay:10.37,2013-10-04 09:55:00,
2013-10-04 06:05:00,59.5,59.2,30.03,East,88,0.0,0.0,99,0.00,FEW,,0.00,WeatherDisplay:10.37,2013-10-04 10:05:00,
2013-10-04 06:15:00,59.5,59.2,30.03,East,88,0.0,1.0,99,0.00,FEW,,0.00,WeatherDisplay:10.37,2013-10-04 10:15:00,
2013-10-04 06:20:00,59.5,59.2,30.03,East,88,0.0,2.0,99,0.00,FEW,,0.00,WeatherDisplay:10.37,2013-10-04 10:20:00,
2013-10-04 06:25:00,59.5,59.2,30.03,East,88,0.0,0.0,99,0.00,FEW,,0.00,WeatherDisplay:10.37,2013-10-04 10:25:00,
2013-10-04 06:35:00,59.3,59.0,30.03,East,88,0.0,0.0,99,0.00,FEW,,0.00,WeatherDisplay:10.37,2013-10-04 10:35:00,
2013-10-04 06:40:00,59.5,59.2,30.03,East,88,0.0,0.0,99,0.00,FEW,,0.00,WeatherDisplay:10.37,2013-10-04 10:40:00,
2013-10-04 06:45:00,59.3,59.0,30.03,East,88,0.0,0.0,99,0.00,FEW,,0.00,WeatherDisplay:10.37,2013-10-04 10:45:00,
2013-10-04 06:55:00,59.2,58.9,30.03,East,88,0.0,0.0,99,0.00,FEW,,0.00,WeatherDisplay:10.37,2013-10-04 10:55:00,
2013-10-04 07:00:00,59.0,58.4,30.03,East,88,0.0,0.0,98,0.00,CLR,,0.00,WeatherDisplay:10.37,2013-10-04 11:00:00,
2013-10-04 07:05:00,58.9,58.6,30.03,East,88,0.0,0.0,99,0.00,CLR,,0.00,WeatherDisplay:10.37,2013-10-04 11:05:00,
2013-10-04 07:15:00,58.7,58.4,30.03,East,88,0.0,0.0,99,0.00,CLR,,0.00,WeatherDisplay:10.37,2013-10-04 11:15:00,
2013-10-04 07:20:00,58.7,58.4,30.03,East,88,0.0,0.0,99,0.00,CLR,,0.00,WeatherDisplay:10.37,2013-10-04 11:20:00,
2013-10-04 07:25:00,58.7,58.4,30.03,East,88,0.0,1.0,99,0.00,CLR,,0.00,WeatherDisplay:10.37,2013-10-04 11:25:00,
2013-10-04 07:30:00,58.9,58.6,30.04,East,88,0.0,0.0,99,0.00,CLR,,0.00,WeatherDisplay:10.37,2013-10-04 11:30:00,
2013-10-04 07:35:00,58.9,58.6,30.04,East,88,0.0,0.0,99,0.00,CLR,,0.00,WeatherDisplay:10.37,2013-10-04 11:35:00,
2013-10-04 07:40:00,58.9,58.6,30.04,East,88,0.0,2.0,99,0.00,CLR,,0.00,WeatherDisplay:10.37,2013-10-04 11:40:00,
2013-10-04 07:50:00,59.5,59.2,30.05,East,89,1.0,2.0,99,0.00,CLR,,0.00,WeatherDisplay:10.37,2013-10-04 11:50:00,
2013-10-04 08:00:00,60.0,59.8,30.05,East,88,0.0,2.0,99,0.00,CLR,,0.00,WeatherDisplay:10.37,2013-10-04 12:00:00,
2013-10-04 08:05:00,60.4,60.1,30.05,East,88,0.0,2.0,99,0.00,CLR,,0.00,WeatherDisplay:10.37,2013-10-04 12:05:00,
2013-10-04 08:15:00,61.0,60.7,30.05,East,88,0.0,2.0,99,0.00,CLR,,0.00,WeatherDisplay:10.37,2013-10-04 12:15:00,
2013-10-04 08:20:00,61.4,61.1,30.05,East,88,0.0,1.0,99,0.00,CLR,,0.00,WeatherDisplay:10.37,2013-10-04 12:20:00,
2013-10-04 08:25:00,61.8,61.5,30.05,East,88,0.0,1.0,99,0.00,CLR,,0.00,WeatherDisplay:10.37,2013-10-04 12:25:00,
2013-10-04 08:35:00,62.4,62.1,30.06,East,89,0.0,1.0,99,0.00,CLR,,0.00,WeatherDisplay:10.37,2013-10-04 12:35:00,
2013-10-04 08:40:00,62.9,62.6,30.06,East,88,1.0,1.0,99,0.00,CLR,,0.00,WeatherDisplay:10.37,2013-10-04 12:40:00,
2013-10-04 08:45:00,63.2,62.9,30.06,East,88,0.0,1.0,99,0.00,CLR,,0.00,WeatherDisplay:10.37,2013-10-04 12:45:00,
2013-10-04 08:50:00,63.2,62.9,30.06,East,88,0.0,0.0,99,0.00,CLR,,0.00,WeatherDisplay:10.37,2013-10-04 12:50:00,
2013-10-04 09:00:00,63.9,63.7,30.06,East,88,0.0,1.0,99,0.00,SCT,,0.00,WeatherDisplay:10.37,2013-10-04 13:00:00,
2013-10-04 09:05:00,64.4,64.1,30.06,East,88,0.0,0.0,99,0.00,SCT,,0.00,WeatherDisplay:10.37,2013-10-04 13:05:00,
2013-10-04 09:10:00,64.9,64.6,30.06,East,88,0.0,0.0,99,0.00,SCT,,0.00,WeatherDisplay:10.37,2013-10-04 13:10:00,
2013-10-04 09:20:00,66.0,65.7,30.06,East,88,0.0,0.0,99,0.00,SCT,,0.00,WeatherDisplay:10.37,2013-10-04 13:20:00,
2013-10-04 09:25:00,66.4,65.8,30.06,East,88,0.0,1.0,98,0.00,SCT,,0.00,WeatherDisplay:10.37,2013-10-04 13:25:00,
2013-10-04 09:30:00,66.9,66.0,30.06,East,86,0.0,2.0,97,0.00,SCT,,0.00,WeatherDisplay:10.37,2013-10-04 13:30:00,
2013-10-04 09:35:00,67.3,66.4,30.06,ENE,74,0.0,2.0,97,0.00,SCT,,0.00,WeatherDisplay:10.37,2013-10-04 13:35:00,
2013-10-04 09:45:00,68.1,66.9,30.06,ENE,72,0.0,0.0,96,0.00,SCT,,0.00,WeatherDisplay:10.37,2013-10-04 13:45:00,
2013-10-04 09:50:00,68.6,67.2,30.06,ENE,69,0.0,2.0,95,0.00,SCT,,0.00,WeatherDisplay:10.37,2013-10-04 13:50:00,
2013-10-04 09:55:00,69.3,66.9,30.06,North,351,2.0,4.0,92,0.00,SCT,,0.00,WeatherDisplay:10.37,2013-10-04 13:55:00,
2013-10-04 10:00:00,69.8,66.1,30.06,NW,305,2.0,5.0,88,0.00,CLR,,0.00,WeatherDisplay:10.37,2013-10-04 14:00:00,
2013-10-04 10:10:00,71.1,66.4,30.06,WNW,302,1.0,3.0,85,0.00,CLR,,0.00,WeatherDisplay:10.37,2013-10-04 14:10:00,
2013-10-04 10:20:00,72.2,66.4,30.06,WNW,302,0.0,2.0,82,0.00,CLR,,0.00,WeatherDisplay:10.37,2013-10-04 14:20:00,
2013-10-04 10:25:00,72.7,66.6,30.06,WNW,292,1.0,5.0,81,0.00,CLR,,0.00,WeatherDisplay:10.37,2013-10-04 14:25:00,
2013-10-04 10:30:00,73.3,65.7,30.06,West,279,2.0,5.0,77,0.00,CLR,,0.00,WeatherDisplay:10.37,2013-10-04 14:30:00,
2013-10-04 10:35:00,74.0,66.3,30.06,West,277,1.0,3.0,77,0.00,CLR,,0.00,WeatherDisplay:10.37,2013-10-04 14:35:00,
2013-10-04 10:40:00,74.6,66.6,30.06,West,277,1.0,3.0,76,0.00,CLR,,0.00,WeatherDisplay:10.37,2013-10-04 14:40:00,
2013-10-04 10:50:00,75.4,66.5,30.05,West,269,1.0,6.0,74,0.00,CLR,,0.00,WeatherDisplay:10.37,2013-10-04 14:50:00,
2013-10-04 10:55:00,75.8,66.9,30.05,West,262,1.0,6.0,74,0.00,CLR,,0.00,WeatherDisplay:10.37,2013-10-04 14:55:00,
2013-10-04 11:05:00,76.5,67.2,30.05,West,262,1.0,5.0,73,0.00,CLR,,0.00,WeatherDisplay:10.37,2013-10-04 15:05:00,
2013-10-04 11:10:00,77.1,67.3,30.05,West,263,0.0,3.0,72,0.00,CLR,,0.00,WeatherDisplay:10.37,2013-10-04 15:10:00,
2013-10-04 11:15:00,78.0,67.5,30.04,West,263,0.0,2.0,70,0.00,CLR,,0.00,WeatherDisplay:10.37,2013-10-04 15:15:00,
2013-10-04 11:25:00,79.2,66.4,30.04,West,263,0.0,4.0,65,0.00,CLR,,0.00,WeatherDisplay:10.37,2013-10-04 15:25:00,
2013-10-04 11:30:00,79.8,66.1,30.04,West,263,1.0,2.0,63,0.00,CLR,,0.00,WeatherDisplay:10.37,2013-10-04 15:30:00,
2013-10-04 11:35:00,80.5,66.3,30.04,West,268,1.0,6.0,62,0.00,CLR,,0.00,WeatherDisplay:10.37,2013-10-04 15:35:00,
2013-10-04 11:40:00,81.3,67.5,30.04,WNW,283,2.0,7.0,63,0.00,CLR,,0.00,WeatherDisplay:10.37,2013-10-04 15:40:00,
2013-10-04 11:45:00,81.8,67.5,30.04,WNW,288,3.0,12.0,62,0.00,CLR,,0.00,WeatherDisplay:10.37,2013-10-04 15:45:00,
2013-10-04 11:55:00,81.4,66.7,30.04,West,273,3.0,6.0,61,0.00,CLR,,0.00,WeatherDisplay:10.37,2013-10-04 15:55:00,
2013-10-04 12:00:00,81.4,66.7,30.04,West,262,1.0,4.0,61,0.00,CLR,,0.00,WeatherDisplay:10.37,2013-10-04 16:00:00,
2013-10-04 12:05:00,81.8,66.6,30.04,West,259,0.0,5.0,60,0.00,CLR,,0.00,WeatherDisplay:10.37,2013-10-04 16:05:00,
2013-10-04 12:15:00,82.8,66.5,30.03,West,260,0.0,2.0,58,0.00,CLR,,0.00,WeatherDisplay:10.37,2013-10-04 16:15:00,
2013-10-04 12:20:00,83.6,67.2,30.03,West,260,0.0,3.0,58,0.00,CLR,,0.00,WeatherDisplay:10.37,2013-10-04 16:20:00,
2013-10-04 12:25:00,84.1,67.2,30.03,West,261,2.0,4.0,57,0.00,CLR,,0.00,WeatherDisplay:10.37,2013-10-04 16:25:00,
2013-10-04 12:30:00,84.5,65.5,30.03,West,261,1.0,3.0,53,0.00,CLR,,0.00,WeatherDisplay:10.37,2013-10-04 16:30:00,
2013-10-04 12:35:00,84.9,65.3,30.03,West,261,0.0,1.0,52,0.00,CLR,,0.00,WeatherDisplay:10.37,2013-10-04 16:35:00,
2013-10-04 12:40:00,84.9,65.3,30.03,West,267,0.0,5.0,52,0.00,CLR,,0.00,WeatherDisplay:10.37,2013-10-04 16:40:00,
2013-10-04 12:45:00,84.1,65.7,30.02,NW,318,1.0,6.0,54,0.00,CLR,,0.00,WeatherDisplay:10.37,2013-10-04 16:45:00,
2013-10-04 12:50:00,84.3,64.8,30.02,NW,312,5.0,8.0,52,0.00,CLR,,0.00,WeatherDisplay:10.37,2013-10-04 16:50:00,
2013-10-04 13:00:00,85.5,65.8,30.02,WSW,254,2.0,8.0,52,0.00,CLR,,0.00,WeatherDisplay:10.37,2013-10-04 17:00:00,
2013-10-04 13:05:00,85.7,66.0,30.02,WSW,258,2.0,6.0,52,0.00,CLR,,0.00,WeatherDisplay:10.37,2013-10-04 17:05:00,
2013-10-04 13:15:00,86.4,66.7,30.01,West,262,2.0,5.0,52,0.00,CLR,,0.00,WeatherDisplay:10.37,2013-10-04 17:15:00,
2013-10-04 13:25:00,86.7,67.0,30.01,West,270,2.0,10.0,52,0.00,CLR,,0.00,WeatherDisplay:10.37,2013-10-04 17:25:00,
2013-10-04 13:30:00,87.0,67.2,30.00,West,269,1.0,5.0,52,0.00,CLR,,0.00,WeatherDisplay:10.37,2013-10-04 17:30:00,
2013-10-04 13:35:00,86.6,66.3,30.00,West,276,3.0,6.0,51,0.00,CLR,,0.00,WeatherDisplay:10.37,2013-10-04 17:35:00,
2013-10-04 14:00:00,87.5,64.8,29.99,West,268,0.0,3.0,47,0.00,CLR,,0.00,WeatherDisplay:10.37,2013-10-04 18:00:00,
2013-10-04 14:05:00,87.8,64.4,29.99,West,279,2.0,7.0,46,0.00,CLR,,0.00,WeatherDisplay:10.37,2013-10-04 18:05:00,
2013-10-04 14:10:00,87.8,65.1,29.99,WNW,286,1.0,8.0,47,0.00,CLR,,0.00,WeatherDisplay:10.37,2013-10-04 18:10:00,
2013-10-04 14:15:00,88.0,64.6,29.99,West,278,2.0,6.0,46,0.00,CLR,,0.00,WeatherDisplay:10.37,2013-10-04 18:15:00,
2013-10-04 14:20:00,88.0,65.2,29.99,West,259,2.0,5.0,47,0.00,CLR,,0.00,WeatherDisplay:10.37,2013-10-04 18:20:00,
2013-10-04 14:25:00,87.8,65.1,29.99,West,260,1.0,5.0,47,0.00,CLR,,0.00,WeatherDisplay:10.37,2013-10-04 18:25:00,
2013-10-04 14:30:00,87.2,65.8,29.98,West,261,1.0,3.0,49,0.00,CLR,,0.00,WeatherDisplay:10.37,2013-10-04 18:30:00,
2013-10-04 14:40:00,86.5,65.1,29.98,WNW,283,2.0,7.0,49,0.00,CLR,,0.00,WeatherDisplay:10.37,2013-10-04 18:40:00,
2013-10-04 14:45:00,86.3,64.9,29.98,WNW,296,1.0,7.0,49,0.00,CLR,,0.00,WeatherDisplay:10.37,2013-10-04 18:45:00,
2013-10-04 14:50:00,86.3,65.5,29.98,WNW,289,2.0,8.0,50,0.00,CLR,,0.00,WeatherDisplay:10.37,2013-10-04 18:50:00,
2013-10-04 14:55:00,85.9,65.7,29.98,WNW,283,1.0,6.0,51,0.00,CLR,,0.00,WeatherDisplay:10.37,2013-10-04 18:55:00,
2013-10-04 15:00:00,85.9,65.7,29.98,WNW,285,0.0,2.0,51,0.00,FEW,,0.00,WeatherDisplay:10.37,2013-10-04 19:00:00,
2013-10-04 15:10:00,84.6,66.6,29.98,West,281,0.0,0.0,55,0.00,FEW,,0.00,WeatherDisplay:10.37,2013-10-04 19:10:00,
2013-10-04 15:15:00,84.3,66.9,29.98,West,281,0.0,0.0,56,0.00,FEW,,0.00,WeatherDisplay:10.37,2013-10-04 19:15:00,
2013-10-04 15:20:00,84.0,66.1,29.98,West,281,0.0,0.0,55,0.00,FEW,,0.00,WeatherDisplay:10.37,2013-10-04 19:20:00,
2013-10-04 15:30:00,83.4,66.6,29.98,West,281,0.0,0.0,57,0.00,FEW,,0.00,WeatherDisplay:10.37,2013-10-04 19:30:00,
2013-10-04 15:40:00,82.8,67.0,29.98,West,281,0.0,0.0,59,0.00,FEW,,0.00,WeatherDisplay:10.37,2013-10-04 19:40:00,
2013-10-04 15:50:00,82.6,67.8,29.98,West,281,0.0,0.0,61,0.00,FEW,,0.00,WeatherDisplay:10.37,2013-10-04 19:50:00,
2013-10-04 15:55:00,82.4,67.1,29.98,West,281,0.0,0.0,60,0.00,FEW,,0.00,WeatherDisplay:10.37,2013-10-04 19:55:00,
2013-10-04 16:00:00,82.4,67.6,29.98,West,281,0.0,0.0,61,0.00,CLR,,0.00,WeatherDisplay:10.37,2013-10-04 20:00:00,
2013-10-04 16:10:00,82.2,68.4,29.98,West,281,0.0,0.0,63,0.00,CLR,,0.00,WeatherDisplay:10.37,2013-10-04 20:10:00,
2013-10-04 16:15:00,82.2,67.9,29.98,West,281,0.0,0.0,62,0.00,CLR,,0.00,WeatherDisplay:10.37,2013-10-04 20:15:00,
2013-10-04 16:25:00,81.6,67.8,29.98,West,281,0.0,0.0,63,0.00,CLR,,0.00,WeatherDisplay:10.37,2013-10-04 20:25:00,
2013-10-04 16:30:00,81.4,68.5,29.98,West,281,0.0,0.0,65,0.00,CLR,,0.00,WeatherDisplay:10.37,2013-10-04 20:30:00,
2013-10-04 16:40:00,81.6,68.7,29.98,East,97,0.0,0.0,65,0.00,CLR,,0.00,WeatherDisplay:10.37,2013-10-04 20:40:00,
2013-10-04 16:45:00,82.3,67.9,29.98,ENE,77,0.0,0.0,62,0.00,CLR,,0.00,WeatherDisplay:10.37,2013-10-04 20:45:00,
2013-10-04 16:50:00,83.0,68.1,29.98,East,79,0.0,0.0,61,0.00,CLR,,0.00,WeatherDisplay:10.37,2013-10-04 20:50:00,
2013-10-04 16:55:00,83.5,68.2,29.98,East,84,2.0,3.0,60,0.00,CLR,,0.00,WeatherDisplay:10.37,2013-10-04 20:55:00,
2013-10-04 17:05:00,83.6,68.2,29.98,East,93,1.0,3.0,60,0.00,CLR,,0.00,WeatherDisplay:10.37,2013-10-04 21:05:00,
2013-10-04 17:10:00,83.8,67.4,29.98,SE,126,2.0,7.0,58,0.00,CLR,,0.00,WeatherDisplay:10.37,2013-10-04 21:10:00,
2013-10-04 17:15:00,83.9,68.0,29.98,SE,130,0.0,2.0,59,0.00,CLR,,0.00,WeatherDisplay:10.37,2013-10-04 21:15:00,
2013-10-04 17:25:00,84.0,68.6,29.98,East,92,1.0,3.0,60,0.00,CLR,,0.00,WeatherDisplay:10.37,2013-10-04 21:25:00,
2013-10-04 17:35:00,83.0,68.6,29.98,East,82,0.0,2.0,62,0.00,CLR,,0.00,WeatherDisplay:10.37,2013-10-04 21:35:00,
2013-10-04 17:45:00,82.3,68.5,29.98,East,82,1.0,2.0,63,0.00,CLR,,0.00,WeatherDisplay:10.37,2013-10-04 21:45:00,
2013-10-04 17:55:00,81.2,68.3,29.98,East,84,1.0,2.0,65,0.00,CLR,,0.00,WeatherDisplay:10.37,2013-10-04 21:55:00,
2013-10-04 18:00:00,80.9,68.5,29.98,East,85,1.0,5.0,66,0.00,CLR,,0.00,WeatherDisplay:10.37,2013-10-04 22:00:00,
2013-10-04 18:05:00,80.5,68.5,29.98,East,86,0.0,2.0,67,0.00,CLR,,0.00,WeatherDisplay:10.37,2013-10-04 22:05:00,
2013-10-04 18:15:00,79.8,68.3,29.99,East,84,0.0,0.0,68,0.00,CLR,,0.00,WeatherDisplay:10.37,2013-10-04 22:15:00,
2013-10-04 18:25:00,79.2,68.1,29.99,East,83,0.0,0.0,69,0.00,CLR,,0.00,WeatherDisplay:10.37,2013-10-04 22:25:00,
2013-10-04 18:30:00,78.8,68.2,29.99,East,83,0.0,0.0,70,0.00,CLR,,0.00,WeatherDisplay:10.37,2013-10-04 22:30:00,
2013-10-04 18:35:00,78.6,68.0,29.99,East,83,0.0,0.0,70,0.00,CLR,,0.00,WeatherDisplay:10.37,2013-10-04 22:35:00,
2013-10-04 18:40:00,78.3,68.1,29.99,East,83,0.0,0.0,71,0.00,CLR,,0.00,WeatherDisplay:10.37,2013-10-04 22:40:00,
2013-10-04 18:50:00,77.7,67.6,29.98,East,83,0.0,0.0,71,0.00,CLR,,0.00,WeatherDisplay:10.37,2013-10-04 22:50:00,
2013-10-04 18:55:00,77.5,68.5,29.98,East,83,0.0,0.0,74,0.00,CLR,,0.00,WeatherDisplay:10.37,2013-10-04 22:55:00,
2013-10-04 19:00:00,77.0,68.9,29.99,East,83,0.0,0.0,76,0.00,CLR,,0.00,WeatherDisplay:10.37,2013-10-04 23:00:00,
2013-10-04 19:05:00,76.7,68.5,29.99,East,83,0.0,0.0,76,0.00,CLR,,0.00,WeatherDisplay:10.37,2013-10-04 23:05:00,
2013-10-04 19:10:00,76.1,68.0,29.99,East,83,0.0,0.0,76,0.00,CLR,,0.00,WeatherDisplay:10.37,2013-10-04 23:10:00,
2013-10-04 19:15:00,75.8,68.4,29.99,East,83,0.0,0.0,78,0.00,CLR,,0.00,WeatherDisplay:10.37,2013-10-04 23:15:00,
2013-10-04 19:20:00,75.3,68.4,29.99,East,83,0.0,0.0,79,0.00,CLR,,0.00,WeatherDisplay:10.37,2013-10-04 23:20:00,
2013-10-04 19:30:00,74.5,68.6,29.99,East,83,0.0,0.0,82,0.00,CLR,,0.00,WeatherDisplay:10.37,2013-10-04 23:30:00,
2013-10-04 19:35:00,73.9,68.8,29.99,East,83,0.0,0.0,84,0.00,CLR,,0.00,WeatherDisplay:10.37,2013-10-04 23:35:00,
2013-10-04 19:45:00,73.2,68.1,29.99,East,83,0.0,0.0,84,0.00,CLR,,0.00,WeatherDisplay:10.37,2013-10-04 23:45:00,
2013-10-04 19:50:00,73.0,67.8,29.99,East,83,0.0,0.0,84,0.00,CLR,,0.00,WeatherDisplay:10.37,2013-10-04 23:50:00,
2013-10-04 19:55:00,72.7,67.6,29.99,East,83,0.0,0.0,84,0.00,CLR,,0.00,WeatherDisplay:10.37,2013-10-04 23:55:00,
2013-10-04 20:00:00,72.4,67.6,30.00,East,83,0.0,0.0,85,0.00,CLR,,0.00,WeatherDisplay:10.37,2013-10-05 00:00:00,
2013-10-04 20:10:00,72.0,67.9,30.00,East,83,0.0,0.0,87,0.00,CLR,,0.00,WeatherDisplay:10.37,2013-10-05 00:10:00,
2013-10-04 20:15:00,71.6,67.5,30.00,East,83,0.0,0.0,87,0.00,CLR,,0.00,WeatherDisplay:10.37,2013-10-05 00:15:00,
2013-10-04 20:20:00,71.5,67.7,30.00,East,83,0.0,0.0,88,0.00,CLR,,0.00,WeatherDisplay:10.37,2013-10-05 00:20:00,
2013-10-04 20:30:00,70.9,67.2,30.00,East,83,0.0,0.0,88,0.00,CLR,,0.00,WeatherDisplay:10.37,2013-10-05 00:30:00,
2013-10-04 20:35:00,70.8,67.4,30.00,East,83,0.0,0.0,89,0.00,CLR,,0.00,WeatherDisplay:10.37,2013-10-05 00:35:00,
2013-10-04 20:45:00,70.3,67.2,30.01,East,83,0.0,0.0,90,0.00,CLR,,0.00,WeatherDisplay:10.37,2013-10-05 00:45:00,
2013-10-04 20:55:00,69.9,67.2,30.01,East,83,0.0,0.0,91,0.00,CLR,,0.00,WeatherDisplay:10.37,2013-10-05 00:55:00,
2013-10-04 21:05:00,69.8,67.4,30.01,East,83,0.0,0.0,92,0.00,CLR,,0.00,WeatherDisplay:10.37,2013-10-05 01:05:00,
2013-10-04 21:10:00,69.6,67.2,30.01,East,83,0.0,0.0,92,0.00,CLR,,0.00,WeatherDisplay:10.37,2013-10-05 01:10:00,
2013-10-04 21:15:00,69.4,67.0,30.01,East,83,0.0,0.0,92,0.00,CLR,,0.00,WeatherDisplay:10.37,2013-10-05 01:15:00,
2013-10-04 21:20:00,69.3,66.9,30.01,East,83,0.0,0.0,92,0.00,CLR,,0.00,WeatherDisplay:10.37,2013-10-05 01:20:00,
2013-10-04 21:25:00,69.3,67.2,30.01,East,83,0.0,0.0,93,0.00,CLR,,0.00,WeatherDisplay:10.37,2013-10-05 01:25:00,
2013-10-04 21:30:00,69.1,67.0,30.01,East,83,0.0,0.0,93,0.00,CLR,,0.00,WeatherDisplay:10.37,2013-10-05 01:30:00,
2013-10-04 21:40:00,68.6,66.5,30.01,East,83,0.0,0.0,93,0.00,CLR,,0.00,WeatherDisplay:10.37,2013-10-05 01:40:00,
2013-10-04 21:45:00,68.4,66.3,30.01,East,83,0.0,0.0,93,0.00,CLR,,0.00,WeatherDisplay:10.37,2013-10-05 01:45:00,
2013-10-04 21:50:00,68.3,66.5,30.01,East,83,0.0,0.0,94,0.00,CLR,,0.00,WeatherDisplay:10.37,2013-10-05 01:50:00,
2013-10-04 21:55:00,68.3,66.5,30.01,East,83,0.0,0.0,94,0.00,CLR,,0.00,WeatherDisplay:10.37,2013-10-05 01:55:00,
2013-10-04 22:00:00,68.3,66.5,30.01,East,83,0.0,0.0,94,0.00,CLR,,0.00,WeatherDisplay:10.37,2013-10-05 02:00:00,
2013-10-04 22:05:00,68.1,66.3,30.01,East,83,0.0,0.0,94,0.00,CLR,,0.00,WeatherDisplay:10.37,2013-10-05 02:05:00,
2013-10-04 22:15:00,67.9,66.4,30.01,East,83,0.0,0.0,95,0.00,CLR,,0.00,WeatherDisplay:10.37,2013-10-05 02:15:00,
2013-10-04 22:20:00,67.9,66.4,30.01,East,83,0.0,0.0,95,0.00,CLR,,0.00,WeatherDisplay:10.37,2013-10-05 02:20:00,
2013-10-04 22:25:00,67.8,66.3,30.01,East,83,0.0,0.0,95,0.00,CLR,,0.00,WeatherDisplay:10.37,2013-10-05 02:25:00,
2013-10-04 22:35:00,67.6,66.1,30.01,East,83,0.0,0.0,95,0.00,CLR,,0.00,WeatherDisplay:10.37,2013-10-05 02:35:00,
2013-10-04 22:45:00,67.3,65.8,30.01,East,83,0.0,0.0,95,0.00,CLR,,0.00,WeatherDisplay:10.37,2013-10-05 02:45:00,
2013-10-04 22:55:00,66.9,65.4,30.01,East,83,0.0,0.0,95,0.00,CLR,,0.00,WeatherDisplay:10.37,2013-10-05 02:55:00,
2013-10-04 23:05:00,66.6,65.1,30.01,East,83,0.0,0.0,95,0.00,CLR,,0.00,WeatherDisplay:10.37,2013-10-05 03:05:00,
2013-10-04 23:10:00,66.4,64.9,30.01,East,83,0.0,0.0,95,0.00,CLR,,0.00,WeatherDisplay:10.37,2013-10-05 03:10:00,
2013-10-04 23:15:00,66.4,64.9,30.01,East,83,0.0,0.0,95,0.00,CLR,,0.00,WeatherDisplay:10.37,2013-10-05 03:15:00,
2013-10-04 23:25:00,66.4,65.2,30.01,East,83,0.0,0.0,96,0.00,CLR,,0.00,WeatherDisplay:10.37,2013-10-05 03:25:00,
2013-10-04 23:30:00,66.4,65.2,30.01,East,83,0.0,0.0,96,0.00,CLR,,0.00,WeatherDisplay:10.37,2013-10-05 03:30:00,
2013-10-04 23:40:00,66.3,65.1,30.01,East,83,0.0,0.0,96,0.00,CLR,,0.00,WeatherDisplay:10.37,2013-10-05 03:40:00,
2013-10-04 23:45:00,66.1,64.9,30.01,East,83,0.0,0.0,96,0.00,CLR,,0.00,WeatherDisplay:10.37,2013-10-05 03:45:00,
2013-10-04 23:55:00,66.0,64.8,30.01,East,83,0.0,0.0,96,0.00,CLR,,0.00,WeatherDisplay:10.37,2013-10-05 03:55:00,